sensor_id;sensor_type;location;lat;lon;timestamp;temperature;humidity
10968;DHT22;5536;49.602;10.980;2023-07-31T00:01:57;16.90;99.90
10968;DHT22;5536;49.602;10.980;2023-07-31T00:04:24;16.90;99.90
10968;DHT22;5536;49.602;10.980;2023-07-31T00:06:53;16.80;99.90
10968;DHT22;5536;49.602;10.980;2023-07-31T00:09:20;16.80;99.90
10968;DHT22;5536;49.602;10.980;2023-07-31T00:11:47;16.80;99.90
10968;DHT22;5536;49.602;10.980;2023-07-31T00:14:13;16.80;99.90
10968;DHT22;5536;49.602;10.980;2023-07-31T00:16:40;16.80;99.90
10968;DHT22;5536;49.602;10.980;2023-07-31T00:19:07;16.90;99.90
10968;DHT22;5536;49.602;10.980;2023-07-31T00:21:34;16.90;99.90
10968;DHT22;5536;49.602;10.980;2023-07-31T00:24:03;17.00;99.90
10968;DHT22;5536;49.602;10.980;2023-07-31T00:26:30;17.10;99.90
10968;DHT22;5536;49.602;10.980;2023-07-31T00:28:57;17.10;99.90
10968;DHT22;5536;49.602;10.980;2023-07-31T00:31:24;17.10;99.90
10968;DHT22;5536;49.602;10.980;2023-07-31T00:33:51;17.20;99.90
10968;DHT22;5536;49.602;10.980;2023-07-31T00:36:18;17.20;99.90
10968;DHT22;5536;49.602;10.980;2023-07-31T00:38:45;17.20;99.90
10968;DHT22;5536;49.602;10.980;2023-07-31T00:41:13;17.20;99.90
10968;DHT22;5536;49.602;10.980;2023-07-31T00:43:40;17.20;99.90
10968;DHT22;5536;49.602;10.980;2023-07-31T00:46:07;17.20;99.90
10968;DHT22;5536;49.602;10.980;2023-07-31T00:48:35;17.20;99.90
10968;DHT22;5536;49.602;10.980;2023-07-31T00:51:02;17.20;99.90
10968;DHT22;5536;49.602;10.980;2023-07-31T00:53:29;17.20;99.90
10968;DHT22;5536;49.602;10.980;2023-07-31T00:55:56;17.20;99.90
10968;DHT22;5536;49.602;10.980;2023-07-31T00:58:25;17.20;99.90
10968;DHT22;5536;49.602;10.980;2023-07-31T01:00:52;17.20;99.90
10968;DHT22;5536;49.602;10.980;2023-07-31T01:03:19;17.20;99.90
10968;DHT22;5536;49.602;10.980;2023-07-31T01:05:52;17.20;99.90
10968;DHT22;5536;49.602;10.980;2023-07-31T01:08:26;17.20;99.90
10968;DHT22;5536;49.602;10.980;2023-07-31T01:11:02;17.10;99.90
10968;DHT22;5536;49.602;10.980;2023-07-31T01:13:34;17.20;99.90
10968;DHT22;5536;49.602;10.980;2023-07-31T01:16:01;17.20;99.90
10968;DHT22;5536;49.602;10.980;2023-07-31T01:18:28;17.20;99.90
10968;DHT22;5536;49.602;10.980;2023-07-31T01:21:03;17.20;99.90
10968;DHT22;5536;49.602;10.980;2023-07-31T01:23:51;17.20;99.90
10968;DHT22;5536;49.602;10.980;2023-07-31T01:26:30;17.20;99.90
10968;DHT22;5536;49.602;10.980;2023-07-31T01:29:02;17.30;99.90
10968;DHT22;5536;49.602;10.980;2023-07-31T01:31:30;17.30;99.90
10968;DHT22;5536;49.602;10.980;2023-07-31T01:34:00;17.40;99.90
10968;DHT22;5536;49.602;10.980;2023-07-31T01:36:28;17.40;99.90
10968;DHT22;5536;49.602;10.980;2023-07-31T01:38:58;17.40;99.90
10968;DHT22;5536;49.602;10.980;2023-07-31T01:41:27;17.40;99.90
10968;DHT22;5536;49.602;10.980;2023-07-31T01:43:54;17.40;99.90
10968;DHT22;5536;49.602;10.980;2023-07-31T01:46:21;17.40;99.90
10968;DHT22;5536;49.602;10.980;2023-07-31T01:48:48;17.30;99.90
10968;DHT22;5536;49.602;10.980;2023-07-31T01:51:15;17.30;99.90
10968;DHT22;5536;49.602;10.980;2023-07-31T01:53:42;17.30;99.90
10968;DHT22;5536;49.602;10.980;2023-07-31T01:56:09;17.30;99.90
10968;DHT22;5536;49.602;10.980;2023-07-31T01:58:37;17.30;99.90
10968;DHT22;5536;49.602;10.980;2023-07-31T02:01:04;17.20;99.90
10968;DHT22;5536;49.602;10.980;2023-07-31T02:03:31;17.20;99.90
10968;DHT22;5536;49.602;10.980;2023-07-31T02:05:58;17.20;99.90
10968;DHT22;5536;49.602;10.980;2023-07-31T02:08:25;17.20;99.90
10968;DHT22;5536;49.602;10.980;2023-07-31T02:10:53;17.10;99.90
10968;DHT22;5536;49.602;10.980;2023-07-31T02:13:20;17.20;99.90
10968;DHT22;5536;49.602;10.980;2023-07-31T02:15:49;17.10;99.90
10968;DHT22;5536;49.602;10.980;2023-07-31T02:18:16;17.10;99.90
10968;DHT22;5536;49.602;10.980;2023-07-31T02:20:43;17.10;99.90
10968;DHT22;5536;49.602;10.980;2023-07-31T02:23:11;17.10;99.90
10968;DHT22;5536;49.602;10.980;2023-07-31T02:25:38;17.10;99.90
10968;DHT22;5536;49.602;10.980;2023-07-31T02:28:05;17.10;99.90
10968;DHT22;5536;49.602;10.980;2023-07-31T02:30:32;17.20;99.90
10968;DHT22;5536;49.602;10.980;2023-07-31T02:33:00;17.20;99.90
10968;DHT22;5536;49.602;10.980;2023-07-31T02:35:27;17.00;99.90
10968;DHT22;5536;49.602;10.980;2023-07-31T02:37:55;17.00;99.90
10968;DHT22;5536;49.602;10.980;2023-07-31T02:40:22;17.00;99.90
10968;DHT22;5536;49.602;10.980;2023-07-31T02:42:48;16.90;99.90
10968;DHT22;5536;49.602;10.980;2023-07-31T02:45:15;16.90;99.90
10968;DHT22;5536;49.602;10.980;2023-07-31T02:47:42;16.90;99.90
10968;DHT22;5536;49.602;10.980;2023-07-31T02:50:11;16.80;99.90
10968;DHT22;5536;49.602;10.980;2023-07-31T02:52:38;16.80;99.90
10968;DHT22;5536;49.602;10.980;2023-07-31T02:55:06;16.70;99.90
10968;DHT22;5536;49.602;10.980;2023-07-31T02:57:33;16.80;99.90
10968;DHT22;5536;49.602;10.980;2023-07-31T03:00:00;16.80;99.90
10968;DHT22;5536;49.602;10.980;2023-07-31T03:02:31;16.80;99.90
10968;DHT22;5536;49.602;10.980;2023-07-31T03:04:58;16.70;99.90
10968;DHT22;5536;49.602;10.980;2023-07-31T03:07:26;16.70;99.90
10968;DHT22;5536;49.602;10.980;2023-07-31T03:09:54;16.70;99.90
10968;DHT22;5536;49.602;10.980;2023-07-31T03:12:21;16.70;99.90
10968;DHT22;5536;49.602;10.980;2023-07-31T03:14:48;16.80;99.90
10968;DHT22;5536;49.602;10.980;2023-07-31T03:17:15;16.70;99.90
10968;DHT22;5536;49.602;10.980;2023-07-31T03:19:42;16.70;99.90
10968;DHT22;5536;49.602;10.980;2023-07-31T03:22:09;16.70;99.90
10968;DHT22;5536;49.602;10.980;2023-07-31T03:24:37;16.70;99.90
10968;DHT22;5536;49.602;10.980;2023-07-31T03:27:05;16.60;99.90
10968;DHT22;5536;49.602;10.980;2023-07-31T03:29:32;16.70;99.90
10968;DHT22;5536;49.602;10.980;2023-07-31T03:31:59;16.70;99.90
10968;DHT22;5536;49.602;10.980;2023-07-31T03:34:26;16.70;99.90
10968;DHT22;5536;49.602;10.980;2023-07-31T03:36:53;16.70;99.90
10968;DHT22;5536;49.602;10.980;2023-07-31T03:39:20;16.70;99.90
10968;DHT22;5536;49.602;10.980;2023-07-31T03:41:48;16.70;99.90
10968;DHT22;5536;49.602;10.980;2023-07-31T03:44:15;16.70;99.90
10968;DHT22;5536;49.602;10.980;2023-07-31T03:46:42;16.60;99.90
10968;DHT22;5536;49.602;10.980;2023-07-31T03:49:09;16.70;99.90
10968;DHT22;5536;49.602;10.980;2023-07-31T03:51:36;16.60;99.90
10968;DHT22;5536;49.602;10.980;2023-07-31T03:54:03;16.70;99.90
10968;DHT22;5536;49.602;10.980;2023-07-31T03:56:30;16.80;99.90
10968;DHT22;5536;49.602;10.980;2023-07-31T03:58:58;16.80;99.90
10968;DHT22;5536;49.602;10.980;2023-07-31T04:01:26;16.70;99.90
10968;DHT22;5536;49.602;10.980;2023-07-31T04:03:53;16.70;99.90
10968;DHT22;5536;49.602;10.980;2023-07-31T04:06:20;16.70;99.90
10968;DHT22;5536;49.602;10.980;2023-07-31T04:08:47;16.70;99.90
10968;DHT22;5536;49.602;10.980;2023-07-31T04:11:14;16.60;99.90
10968;DHT22;5536;49.602;10.980;2023-07-31T04:13:41;16.60;99.90
10968;DHT22;5536;49.602;10.980;2023-07-31T04:16:09;16.50;99.90
10968;DHT22;5536;49.602;10.980;2023-07-31T04:18:36;16.50;99.90
10968;DHT22;5536;49.602;10.980;2023-07-31T04:21:03;16.60;99.90
10968;DHT22;5536;49.602;10.980;2023-07-31T04:23:30;16.50;99.90
10968;DHT22;5536;49.602;10.980;2023-07-31T04:25:57;16.60;99.90
10968;DHT22;5536;49.602;10.980;2023-07-31T04:28:24;16.50;99.90
10968;DHT22;5536;49.602;10.980;2023-07-31T04:30:51;16.50;99.90
10968;DHT22;5536;49.602;10.980;2023-07-31T04:33:20;16.40;99.90
10968;DHT22;5536;49.602;10.980;2023-07-31T04:35:50;16.40;99.90
10968;DHT22;5536;49.602;10.980;2023-07-31T04:38:18;16.50;99.90
10968;DHT22;5536;49.602;10.980;2023-07-31T04:40:45;16.50;99.90
10968;DHT22;5536;49.602;10.980;2023-07-31T04:43:12;16.50;99.90
10968;DHT22;5536;49.602;10.980;2023-07-31T04:45:42;16.50;99.90
10968;DHT22;5536;49.602;10.980;2023-07-31T04:48:09;16.50;99.90
10968;DHT22;5536;49.602;10.980;2023-07-31T04:50:37;16.50;99.90
10968;DHT22;5536;49.602;10.980;2023-07-31T04:53:04;16.50;99.90
10968;DHT22;5536;49.602;10.980;2023-07-31T04:55:31;16.50;99.90
10968;DHT22;5536;49.602;10.980;2023-07-31T04:57:59;16.60;99.90
10968;DHT22;5536;49.602;10.980;2023-07-31T05:00:26;16.60;99.90
10968;DHT22;5536;49.602;10.980;2023-07-31T05:02:53;16.70;99.90
10968;DHT22;5536;49.602;10.980;2023-07-31T05:05:20;16.60;99.90
10968;DHT22;5536;49.602;10.980;2023-07-31T05:07:48;16.70;99.90
10968;DHT22;5536;49.602;10.980;2023-07-31T05:10:15;16.80;99.90
10968;DHT22;5536;49.602;10.980;2023-07-31T05:12:42;16.80;99.90
10968;DHT22;5536;49.602;10.980;2023-07-31T05:15:09;16.80;99.90
10968;DHT22;5536;49.602;10.980;2023-07-31T05:17:36;16.90;99.90
10968;DHT22;5536;49.602;10.980;2023-07-31T05:20:04;16.90;99.90
10968;DHT22;5536;49.602;10.980;2023-07-31T05:22:31;16.90;99.90
10968;DHT22;5536;49.602;10.980;2023-07-31T05:24:59;16.90;99.90
10968;DHT22;5536;49.602;10.980;2023-07-31T05:27:26;17.00;99.90
10968;DHT22;5536;49.602;10.980;2023-07-31T05:29:53;17.00;99.90
10968;DHT22;5536;49.602;10.980;2023-07-31T05:32:20;17.00;99.90
10968;DHT22;5536;49.602;10.980;2023-07-31T05:34:47;16.90;99.90
10968;DHT22;5536;49.602;10.980;2023-07-31T05:37:14;17.00;99.90
10968;DHT22;5536;49.602;10.980;2023-07-31T05:39:41;17.00;99.90
10968;DHT22;5536;49.602;10.980;2023-07-31T05:42:09;17.00;99.90
10968;DHT22;5536;49.602;10.980;2023-07-31T05:44:36;17.00;99.90
10968;DHT22;5536;49.602;10.980;2023-07-31T05:47:04;17.10;99.90
10968;DHT22;5536;49.602;10.980;2023-07-31T05:49:31;17.20;99.90
10968;DHT22;5536;49.602;10.980;2023-07-31T05:51:58;17.30;99.90
10968;DHT22;5536;49.602;10.980;2023-07-31T05:54:25;17.30;99.90
10968;DHT22;5536;49.602;10.980;2023-07-31T05:56:52;17.30;99.90
10968;DHT22;5536;49.602;10.980;2023-07-31T05:59:20;17.30;99.90
10968;DHT22;5536;49.602;10.980;2023-07-31T06:01:47;17.40;99.90
10968;DHT22;5536;49.602;10.980;2023-07-31T06:04:14;17.50;99.90
10968;DHT22;5536;49.602;10.980;2023-07-31T06:06:41;17.50;99.90
10968;DHT22;5536;49.602;10.980;2023-07-31T06:09:08;17.40;99.90
10968;DHT22;5536;49.602;10.980;2023-07-31T06:11:35;17.40;99.90
10968;DHT22;5536;49.602;10.980;2023-07-31T06:14:02;17.50;99.90
10968;DHT22;5536;49.602;10.980;2023-07-31T06:16:30;17.60;99.90
10968;DHT22;5536;49.602;10.980;2023-07-31T06:18:57;17.60;99.90
10968;DHT22;5536;49.602;10.980;2023-07-31T06:21:24;17.80;99.90
10968;DHT22;5536;49.602;10.980;2023-07-31T06:23:51;17.90;99.90
10968;DHT22;5536;49.602;10.980;2023-07-31T06:26:18;17.80;99.90
10968;DHT22;5536;49.602;10.980;2023-07-31T06:28:45;17.90;99.90
10968;DHT22;5536;49.602;10.980;2023-07-31T06:31:12;17.90;99.90
10968;DHT22;5536;49.602;10.980;2023-07-31T06:33:40;18.00;99.90
10968;DHT22;5536;49.602;10.980;2023-07-31T06:36:07;18.10;99.90
10968;DHT22;5536;49.602;10.980;2023-07-31T06:38:34;18.20;99.90
10968;DHT22;5536;49.602;10.980;2023-07-31T06:41:01;18.20;99.90
10968;DHT22;5536;49.602;10.980;2023-07-31T06:43:28;18.30;99.90
10968;DHT22;5536;49.602;10.980;2023-07-31T06:45:55;18.30;99.90
10968;DHT22;5536;49.602;10.980;2023-07-31T06:48:22;18.30;99.90
10968;DHT22;5536;49.602;10.980;2023-07-31T06:50:50;18.30;99.90
10968;DHT22;5536;49.602;10.980;2023-07-31T06:53:17;18.30;99.90
10968;DHT22;5536;49.602;10.980;2023-07-31T06:55:44;18.40;99.90
10968;DHT22;5536;49.602;10.980;2023-07-31T06:58:11;18.50;99.90
10968;DHT22;5536;49.602;10.980;2023-07-31T07:00:38;18.60;99.90
10968;DHT22;5536;49.602;10.980;2023-07-31T07:03:05;18.70;99.90
10968;DHT22;5536;49.602;10.980;2023-07-31T07:05:32;18.80;99.90
10968;DHT22;5536;49.602;10.980;2023-07-31T07:08:00;18.90;99.90
10968;DHT22;5536;49.602;10.980;2023-07-31T07:10:27;18.90;99.90
10968;DHT22;5536;49.602;10.980;2023-07-31T07:12:54;19.00;99.90
10968;DHT22;5536;49.602;10.980;2023-07-31T07:15:22;19.00;99.90
10968;DHT22;5536;49.602;10.980;2023-07-31T07:17:49;19.20;99.90
10968;DHT22;5536;49.602;10.980;2023-07-31T07:20:16;19.30;99.90
10968;DHT22;5536;49.602;10.980;2023-07-31T07:22:43;19.40;99.90
10968;DHT22;5536;49.602;10.980;2023-07-31T07:25:11;19.30;99.90
10968;DHT22;5536;49.602;10.980;2023-07-31T07:27:38;19.30;99.90
10968;DHT22;5536;49.602;10.980;2023-07-31T07:30:06;19.20;99.90
10968;DHT22;5536;49.602;10.980;2023-07-31T07:32:33;19.10;99.90
10968;DHT22;5536;49.602;10.980;2023-07-31T07:35:00;19.10;99.90
10968;DHT22;5536;49.602;10.980;2023-07-31T07:37:27;19.10;99.90
10968;DHT22;5536;49.602;10.980;2023-07-31T07:39:54;19.10;99.90
10968;DHT22;5536;49.602;10.980;2023-07-31T07:42:23;19.10;99.90
10968;DHT22;5536;49.602;10.980;2023-07-31T07:44:50;19.10;99.90
10968;DHT22;5536;49.602;10.980;2023-07-31T07:47:17;19.00;99.90
10968;DHT22;5536;49.602;10.980;2023-07-31T07:49:43;19.00;99.90
10968;DHT22;5536;49.602;10.980;2023-07-31T07:52:10;19.10;99.90
10968;DHT22;5536;49.602;10.980;2023-07-31T07:54:37;19.30;99.90
10968;DHT22;5536;49.602;10.980;2023-07-31T07:57:04;19.30;99.90
10968;DHT22;5536;49.602;10.980;2023-07-31T07:59:33;19.50;99.90
10968;DHT22;5536;49.602;10.980;2023-07-31T08:02:00;19.50;99.90
10968;DHT22;5536;49.602;10.980;2023-07-31T08:04:27;19.60;99.90
10968;DHT22;5536;49.602;10.980;2023-07-31T08:06:54;19.50;99.90
10968;DHT22;5536;49.602;10.980;2023-07-31T08:09:21;19.40;99.90
10968;DHT22;5536;49.602;10.980;2023-07-31T08:11:48;19.60;99.90
10968;DHT22;5536;49.602;10.980;2023-07-31T08:14:15;19.80;99.90
10968;DHT22;5536;49.602;10.980;2023-07-31T08:16:43;20.00;99.90
10968;DHT22;5536;49.602;10.980;2023-07-31T08:19:10;20.00;99.90
10968;DHT22;5536;49.602;10.980;2023-07-31T08:21:37;20.00;99.90
10968;DHT22;5536;49.602;10.980;2023-07-31T08:24:04;20.10;99.90
10968;DHT22;5536;49.602;10.980;2023-07-31T08:26:31;20.20;99.90
10968;DHT22;5536;49.602;10.980;2023-07-31T08:28:58;20.00;99.90
10968;DHT22;5536;49.602;10.980;2023-07-31T08:31:25;20.00;99.90
10968;DHT22;5536;49.602;10.980;2023-07-31T08:33:54;20.10;99.90
10968;DHT22;5536;49.602;10.980;2023-07-31T08:36:20;20.10;99.90
10968;DHT22;5536;49.602;10.980;2023-07-31T08:38:47;20.20;99.90
10968;DHT22;5536;49.602;10.980;2023-07-31T08:41:15;20.30;99.90
10968;DHT22;5536;49.602;10.980;2023-07-31T08:43:44;20.20;99.90
10968;DHT22;5536;49.602;10.980;2023-07-31T08:46:12;20.20;99.90
10968;DHT22;5536;49.602;10.980;2023-07-31T08:48:41;20.40;99.90
10968;DHT22;5536;49.602;10.980;2023-07-31T08:51:10;20.40;99.90
10968;DHT22;5536;49.602;10.980;2023-07-31T08:53:37;20.50;99.90
10968;DHT22;5536;49.602;10.980;2023-07-31T08:56:05;20.60;99.90
10968;DHT22;5536;49.602;10.980;2023-07-31T08:58:34;20.70;99.90
10968;DHT22;5536;49.602;10.980;2023-07-31T09:01:04;20.80;99.90
10968;DHT22;5536;49.602;10.980;2023-07-31T09:03:34;20.90;99.90
10968;DHT22;5536;49.602;10.980;2023-07-31T09:06:02;20.90;99.90
10968;DHT22;5536;49.602;10.980;2023-07-31T09:08:31;21.00;99.90
10968;DHT22;5536;49.602;10.980;2023-07-31T09:11:00;21.20;99.90
10968;DHT22;5536;49.602;10.980;2023-07-31T09:13:29;21.30;99.90
10968;DHT22;5536;49.602;10.980;2023-07-31T09:15:57;21.30;99.90
10968;DHT22;5536;49.602;10.980;2023-07-31T09:18:24;21.10;99.90
10968;DHT22;5536;49.602;10.980;2023-07-31T09:21:00;21.40;99.90
10968;DHT22;5536;49.602;10.980;2023-07-31T09:23:41;21.30;99.90
10968;DHT22;5536;49.602;10.980;2023-07-31T09:26:08;21.10;99.90
10968;DHT22;5536;49.602;10.980;2023-07-31T09:28:36;21.20;99.90
10968;DHT22;5536;49.602;10.980;2023-07-31T09:31:03;21.30;99.90
10968;DHT22;5536;49.602;10.980;2023-07-31T09:33:30;21.40;99.90
10968;DHT22;5536;49.602;10.980;2023-07-31T09:35:59;21.40;99.90
10968;DHT22;5536;49.602;10.980;2023-07-31T09:38:27;21.30;99.90
10968;DHT22;5536;49.602;10.980;2023-07-31T09:40:55;21.30;99.90
10968;DHT22;5536;49.602;10.980;2023-07-31T09:43:25;21.30;99.90
10968;DHT22;5536;49.602;10.980;2023-07-31T09:45:55;21.30;99.90
10968;DHT22;5536;49.602;10.980;2023-07-31T09:48:24;21.20;99.90
10968;DHT22;5536;49.602;10.980;2023-07-31T09:50:53;21.30;99.90
10968;DHT22;5536;49.602;10.980;2023-07-31T09:53:28;21.40;99.90
10968;DHT22;5536;49.602;10.980;2023-07-31T09:55:58;21.70;99.90
10968;DHT22;5536;49.602;10.980;2023-07-31T09:58:27;21.60;99.90
10968;DHT22;5536;49.602;10.980;2023-07-31T10:00:56;21.60;99.90
10968;DHT22;5536;49.602;10.980;2023-07-31T10:03:24;21.70;99.90
10968;DHT22;5536;49.602;10.980;2023-07-31T10:05:53;21.80;99.90
10968;DHT22;5536;49.602;10.980;2023-07-31T10:08:26;21.70;99.90
10968;DHT22;5536;49.602;10.980;2023-07-31T10:10:59;21.50;99.90
10968;DHT22;5536;49.602;10.980;2023-07-31T10:13:28;21.60;99.90
10968;DHT22;5536;49.602;10.980;2023-07-31T10:15:59;21.70;99.90
10968;DHT22;5536;49.602;10.980;2023-07-31T10:18:26;21.80;99.90
10968;DHT22;5536;49.602;10.980;2023-07-31T10:20:55;21.80;99.90
10968;DHT22;5536;49.602;10.980;2023-07-31T10:23:23;21.80;99.90
10968;DHT22;5536;49.602;10.980;2023-07-31T10:25:53;21.80;99.90
10968;DHT22;5536;49.602;10.980;2023-07-31T10:28:21;22.10;99.90
10968;DHT22;5536;49.602;10.980;2023-07-31T10:30:50;22.10;99.90
10968;DHT22;5536;49.602;10.980;2023-07-31T10:33:18;22.50;99.90
10968;DHT22;5536;49.602;10.980;2023-07-31T10:35:47;22.60;99.90
10968;DHT22;5536;49.602;10.980;2023-07-31T10:38:14;22.50;99.90
10968;DHT22;5536;49.602;10.980;2023-07-31T10:40:42;22.40;99.90
10968;DHT22;5536;49.602;10.980;2023-07-31T10:43:25;22.60;99.90
10968;DHT22;5536;49.602;10.980;2023-07-31T10:45:53;22.60;99.90
10968;DHT22;5536;49.602;10.980;2023-07-31T10:48:21;22.20;99.90
10968;DHT22;5536;49.602;10.980;2023-07-31T10:50:49;22.00;99.90
10968;DHT22;5536;49.602;10.980;2023-07-31T10:53:23;22.00;99.90
10968;DHT22;5536;49.602;10.980;2023-07-31T10:55:52;22.00;99.90
10968;DHT22;5536;49.602;10.980;2023-07-31T10:58:20;21.90;99.90
10968;DHT22;5536;49.602;10.980;2023-07-31T11:00:48;21.70;99.90
10968;DHT22;5536;49.602;10.980;2023-07-31T11:03:17;21.60;99.90
10968;DHT22;5536;49.602;10.980;2023-07-31T11:05:46;21.60;99.90
10968;DHT22;5536;49.602;10.980;2023-07-31T11:08:14;21.70;99.90
10968;DHT22;5536;49.602;10.980;2023-07-31T11:10:42;21.90;99.90
10968;DHT22;5536;49.602;10.980;2023-07-31T11:13:09;22.00;99.90
10968;DHT22;5536;49.602;10.980;2023-07-31T11:15:36;21.90;99.90
10968;DHT22;5536;49.602;10.980;2023-07-31T11:18:04;22.00;99.90
10968;DHT22;5536;49.602;10.980;2023-07-31T11:20:34;22.20;99.90
10968;DHT22;5536;49.602;10.980;2023-07-31T11:23:02;22.10;99.90
10968;DHT22;5536;49.602;10.980;2023-07-31T11:25:30;22.10;99.90
10968;DHT22;5536;49.602;10.980;2023-07-31T11:28:01;22.20;99.90
10968;DHT22;5536;49.602;10.980;2023-07-31T11:30:28;22.30;99.90
10968;DHT22;5536;49.602;10.980;2023-07-31T11:32:57;22.50;99.90
10968;DHT22;5536;49.602;10.980;2023-07-31T11:35:26;22.60;99.90
10968;DHT22;5536;49.602;10.980;2023-07-31T11:37:53;22.50;99.90
10968;DHT22;5536;49.602;10.980;2023-07-31T11:40:20;22.40;99.90
10968;DHT22;5536;49.602;10.980;2023-07-31T11:42:53;22.30;99.90
10968;DHT22;5536;49.602;10.980;2023-07-31T11:45:20;22.20;99.90
10968;DHT22;5536;49.602;10.980;2023-07-31T11:47:47;22.00;99.90
10968;DHT22;5536;49.602;10.980;2023-07-31T11:50:16;22.00;99.90
10968;DHT22;5536;49.602;10.980;2023-07-31T11:52:46;22.00;99.90
10968;DHT22;5536;49.602;10.980;2023-07-31T11:55:15;22.00;99.90
10968;DHT22;5536;49.602;10.980;2023-07-31T11:57:43;22.00;99.90
10968;DHT22;5536;49.602;10.980;2023-07-31T12:00:13;21.90;99.90
10968;DHT22;5536;49.602;10.980;2023-07-31T12:02:41;21.90;99.90
10968;DHT22;5536;49.602;10.980;2023-07-31T12:05:11;21.90;99.90
10968;DHT22;5536;49.602;10.980;2023-07-31T12:07:50;21.90;99.90
10968;DHT22;5536;49.602;10.980;2023-07-31T12:10:29;22.40;99.90
10968;DHT22;5536;49.602;10.980;2023-07-31T12:13:00;22.40;99.90
10968;DHT22;5536;49.602;10.980;2023-07-31T12:15:33;22.30;99.90
10968;DHT22;5536;49.602;10.980;2023-07-31T12:18:00;22.20;99.90
10968;DHT22;5536;49.602;10.980;2023-07-31T12:20:30;22.30;99.90
10968;DHT22;5536;49.602;10.980;2023-07-31T12:22:58;22.40;99.90
10968;DHT22;5536;49.602;10.980;2023-07-31T12:25:29;22.50;99.90
10968;DHT22;5536;49.602;10.980;2023-07-31T12:27:57;22.60;99.90
10968;DHT22;5536;49.602;10.980;2023-07-31T12:30:27;22.60;99.90
10968;DHT22;5536;49.602;10.980;2023-07-31T12:32:54;22.70;99.90
10968;DHT22;5536;49.602;10.980;2023-07-31T12:35:21;22.70;99.90
10968;DHT22;5536;49.602;10.980;2023-07-31T12:37:48;22.70;99.90
10968;DHT22;5536;49.602;10.980;2023-07-31T12:40:17;22.70;99.90
10968;DHT22;5536;49.602;10.980;2023-07-31T12:42:44;22.70;99.90
10968;DHT22;5536;49.602;10.980;2023-07-31T12:45:10;23.10;99.90
10968;DHT22;5536;49.602;10.980;2023-07-31T12:47:40;24.00;99.90
10968;DHT22;5536;49.602;10.980;2023-07-31T12:50:07;24.30;99.90
10968;DHT22;5536;49.602;10.980;2023-07-31T12:52:34;24.30;99.90
10968;DHT22;5536;49.602;10.980;2023-07-31T12:55:01;24.00;99.90
10968;DHT22;5536;49.602;10.980;2023-07-31T12:57:30;24.00;99.90
10968;DHT22;5536;49.602;10.980;2023-07-31T13:00:00;24.10;99.90
10968;DHT22;5536;49.602;10.980;2023-07-31T13:02:26;23.80;99.90
10968;DHT22;5536;49.602;10.980;2023-07-31T13:04:53;23.60;99.90
10968;DHT22;5536;49.602;10.980;2023-07-31T13:07:22;23.30;99.90
10968;DHT22;5536;49.602;10.980;2023-07-31T13:09:49;23.50;99.90
10968;DHT22;5536;49.602;10.980;2023-07-31T13:12:16;23.60;99.90
10968;DHT22;5536;49.602;10.980;2023-07-31T13:14:44;23.80;99.90
10968;DHT22;5536;49.602;10.980;2023-07-31T13:17:11;23.30;99.90
10968;DHT22;5536;49.602;10.980;2023-07-31T13:19:38;23.10;99.90
10968;DHT22;5536;49.602;10.980;2023-07-31T13:22:05;23.80;99.90
10968;DHT22;5536;49.602;10.980;2023-07-31T13:24:32;24.50;99.90
10968;DHT22;5536;49.602;10.980;2023-07-31T13:26:59;24.10;99.90
10968;DHT22;5536;49.602;10.980;2023-07-31T13:29:26;23.70;99.90
10968;DHT22;5536;49.602;10.980;2023-07-31T13:31:54;23.40;99.90
10968;DHT22;5536;49.602;10.980;2023-07-31T13:34:21;23.40;99.90
10968;DHT22;5536;49.602;10.980;2023-07-31T13:36:48;23.30;99.90
10968;DHT22;5536;49.602;10.980;2023-07-31T13:39:15;23.20;99.90
10968;DHT22;5536;49.602;10.980;2023-07-31T13:41:42;23.80;99.90
10968;DHT22;5536;49.602;10.980;2023-07-31T13:44:09;25.20;99.90
10968;DHT22;5536;49.602;10.980;2023-07-31T13:46:36;26.00;99.90
10968;DHT22;5536;49.602;10.980;2023-07-31T13:49:04;26.10;99.90
10968;DHT22;5536;49.602;10.980;2023-07-31T13:51:31;26.40;99.90
10968;DHT22;5536;49.602;10.980;2023-07-31T13:53:58;26.30;99.90
10968;DHT22;5536;49.602;10.980;2023-07-31T13:56:25;25.90;99.90
10968;DHT22;5536;49.602;10.980;2023-07-31T13:58:52;25.70;99.90
10968;DHT22;5536;49.602;10.980;2023-07-31T14:01:19;25.10;99.90
10968;DHT22;5536;49.602;10.980;2023-07-31T14:03:45;24.90;99.90
10968;DHT22;5536;49.602;10.980;2023-07-31T14:06:14;24.50;99.90
10968;DHT22;5536;49.602;10.980;2023-07-31T14:08:41;24.30;99.90
10968;DHT22;5536;49.602;10.980;2023-07-31T14:11:08;24.20;99.90
10968;DHT22;5536;49.602;10.980;2023-07-31T14:13:35;24.10;99.90
10968;DHT22;5536;49.602;10.980;2023-07-31T14:16:02;24.00;99.90
10968;DHT22;5536;49.602;10.980;2023-07-31T14:18:29;24.00;99.90
10968;DHT22;5536;49.602;10.980;2023-07-31T14:20:56;23.80;99.90
10968;DHT22;5536;49.602;10.980;2023-07-31T14:23:24;23.50;99.90
10968;DHT22;5536;49.602;10.980;2023-07-31T14:25:51;23.50;99.90
10968;DHT22;5536;49.602;10.980;2023-07-31T14:28:18;23.30;99.90
10968;DHT22;5536;49.602;10.980;2023-07-31T14:30:45;23.30;99.90
10968;DHT22;5536;49.602;10.980;2023-07-31T14:33:12;23.30;99.90
10968;DHT22;5536;49.602;10.980;2023-07-31T14:35:39;23.20;99.90
10968;DHT22;5536;49.602;10.980;2023-07-31T14:38:06;23.00;99.90
10968;DHT22;5536;49.602;10.980;2023-07-31T14:40:34;23.00;99.90
10968;DHT22;5536;49.602;10.980;2023-07-31T14:43:02;23.00;99.90
10968;DHT22;5536;49.602;10.980;2023-07-31T14:45:29;22.90;99.90
10968;DHT22;5536;49.602;10.980;2023-07-31T14:47:56;22.90;99.90
10968;DHT22;5536;49.602;10.980;2023-07-31T14:50:23;23.00;99.90
10968;DHT22;5536;49.602;10.980;2023-07-31T14:52:50;23.10;99.90
10968;DHT22;5536;49.602;10.980;2023-07-31T14:55:18;23.10;99.90
10968;DHT22;5536;49.602;10.980;2023-07-31T14:57:46;23.10;99.90
10968;DHT22;5536;49.602;10.980;2023-07-31T15:00:14;23.10;99.90
10968;DHT22;5536;49.602;10.980;2023-07-31T15:02:41;23.00;99.90
10968;DHT22;5536;49.602;10.980;2023-07-31T15:05:09;23.00;99.90
10968;DHT22;5536;49.602;10.980;2023-07-31T15:07:36;22.80;99.90
10968;DHT22;5536;49.602;10.980;2023-07-31T15:10:04;22.80;99.90
10968;DHT22;5536;49.602;10.980;2023-07-31T15:12:31;22.70;99.90
10968;DHT22;5536;49.602;10.980;2023-07-31T15:15:00;22.70;99.90
10968;DHT22;5536;49.602;10.980;2023-07-31T15:17:27;22.70;99.90
10968;DHT22;5536;49.602;10.980;2023-07-31T15:19:55;22.70;99.90
10968;DHT22;5536;49.602;10.980;2023-07-31T15:22:22;22.80;99.90
10968;DHT22;5536;49.602;10.980;2023-07-31T15:24:50;22.70;99.90
10968;DHT22;5536;49.602;10.980;2023-07-31T15:27:17;22.60;99.90
10968;DHT22;5536;49.602;10.980;2023-07-31T15:29:44;22.60;99.90
10968;DHT22;5536;49.602;10.980;2023-07-31T15:32:12;22.60;99.90
10968;DHT22;5536;49.602;10.980;2023-07-31T15:34:39;22.50;99.90